createdAt,value
2023-03-05T00:01:24.877Z,8.20
2023-03-05T00:03:54.376Z,8.20
2023-03-05T00:06:24.057Z,8.20
2023-03-05T00:08:53.370Z,8.20
2023-03-05T00:11:21.324Z,8.20
2023-03-05T00:13:51.925Z,8.20
2023-03-05T00:16:19.974Z,8.20
2023-03-05T00:18:47.118Z,8.20
2023-03-05T00:21:22.980Z,8.20
2023-03-05T00:23:51.133Z,8.10
2023-03-05T00:26:20.596Z,8.20
2023-03-05T00:28:50.600Z,8.10
2023-03-05T00:31:20.503Z,8.10
2023-03-05T00:33:56.990Z,8.10
2023-03-05T00:36:25.025Z,8.10
2023-03-05T00:38:52.794Z,8.00
2023-03-05T00:41:20.253Z,8.00
2023-03-05T00:43:48.386Z,7.90
2023-03-05T00:46:16.007Z,7.90
2023-03-05T00:48:43.119Z,7.80
2023-03-05T00:51:10.492Z,7.80
2023-03-05T00:53:37.537Z,7.70
2023-03-05T00:56:05.447Z,7.70
2023-03-05T00:58:32.778Z,7.60
2023-03-05T01:01:02.547Z,7.70
2023-03-05T01:03:30.878Z,7.50
2023-03-05T01:05:58.067Z,7.40
2023-03-05T01:08:25.873Z,7.40
2023-03-05T01:10:53.379Z,7.30
2023-03-05T01:13:21.337Z,7.30
2023-03-05T01:15:50.844Z,7.20
2023-03-05T01:18:20.383Z,7.20
2023-03-05T01:20:47.870Z,7.10
2023-03-05T01:23:15.583Z,7.10
2023-03-05T01:25:42.793Z,7.10
2023-03-05T01:28:10.471Z,7.00
2023-03-05T01:30:37.768Z,7.00
2023-03-05T01:33:04.698Z,7.00
2023-03-05T01:35:31.660Z,7.00
2023-03-05T01:37:58.606Z,7.00
2023-03-05T01:40:29.159Z,7.00
2023-03-05T01:43:01.554Z,7.00
2023-03-05T01:45:32.741Z,6.90
2023-03-05T01:48:00.364Z,6.90
2023-03-05T01:50:29.128Z,6.90
2023-03-05T01:53:06.096Z,6.90
2023-03-05T01:55:37.320Z,6.90
2023-03-05T01:58:10.650Z,6.90
2023-03-05T02:00:48.607Z,6.90
2023-03-05T02:03:16.189Z,6.90
2023-03-05T02:05:44.564Z,6.90
2023-03-05T02:08:16.037Z,6.90
2023-03-05T02:10:46.854Z,6.80
2023-03-05T02:13:28.308Z,6.80
2023-03-05T02:16:00.288Z,6.80
2023-03-05T02:18:27.904Z,6.80
2023-03-05T02:20:57.870Z,6.80
2023-03-05T02:23:33.954Z,6.80
2023-03-05T02:26:01.020Z,6.80
2023-03-05T02:28:42.991Z,6.70
2023-03-05T02:31:16.850Z,6.70
2023-03-05T02:33:44.084Z,6.70
2023-03-05T02:36:12.109Z,6.70
2023-03-05T02:38:41.451Z,6.70
2023-03-05T02:41:09.715Z,6.70
2023-03-05T02:43:37.269Z,6.70
2023-03-05T02:46:05.610Z,6.70
2023-03-05T02:48:32.806Z,6.70
2023-03-05T02:51:01.382Z,6.70
2023-03-05T02:53:28.587Z,6.70
2023-03-05T02:55:56.338Z,6.70
2023-03-05T02:58:23.710Z,6.70
2023-03-05T03:00:51.083Z,6.70
2023-03-05T03:03:18.292Z,6.70
2023-03-05T03:05:45.663Z,6.80
2023-03-05T03:08:12.523Z,6.80
2023-03-05T03:10:39.458Z,6.80
2023-03-05T03:13:06.519Z,6.80
2023-03-05T03:15:33.535Z,6.80
2023-03-05T03:18:00.870Z,6.80
2023-03-05T03:20:27.810Z,6.80
2023-03-05T03:22:54.964Z,6.80
2023-03-05T03:25:23.100Z,6.80
2023-03-05T03:27:52.464Z,6.80
2023-03-05T03:30:19.502Z,6.80
2023-03-05T03:32:46.552Z,6.80
2023-03-05T03:35:14.178Z,6.80
2023-03-05T03:37:42.385Z,6.80
2023-03-05T03:40:11.736Z,6.80
2023-03-05T03:42:38.833Z,6.80
2023-03-05T03:45:06.774Z,6.80
2023-03-05T03:47:33.662Z,6.80
2023-03-05T03:50:00.601Z,6.80
2023-03-05T03:52:27.653Z,6.80
2023-03-05T03:55:01.151Z,6.80
2023-03-05T03:57:33.375Z,6.80
2023-03-05T04:00:00.659Z,6.80
2023-03-05T04:02:27.853Z,6.80
2023-03-05T04:04:55.015Z,6.80
2023-03-05T04:07:22.009Z,6.80
2023-03-05T04:09:49.482Z,6.80
2023-03-05T04:12:18.254Z,6.80
2023-03-05T04:14:49.522Z,6.80
2023-03-05T04:17:16.915Z,6.70
2023-03-05T04:19:45.351Z,6.70
2023-03-05T04:22:15.688Z,6.70
2023-03-05T04:24:43.101Z,6.70
2023-03-05T04:27:10.393Z,6.70
2023-03-05T04:29:37.985Z,6.70
2023-03-05T04:32:05.493Z,6.60
2023-03-05T04:34:33.143Z,6.50
2023-03-05T04:37:00.302Z,6.50
2023-03-05T04:39:27.427Z,6.50
2023-03-05T04:41:54.385Z,6.40
2023-03-05T04:44:23.325Z,6.40
2023-03-05T04:46:50.609Z,6.30
2023-03-05T04:49:17.593Z,6.30
2023-03-05T04:51:44.670Z,6.20
2023-03-05T04:54:11.628Z,6.20
2023-03-05T04:56:38.694Z,6.10
2023-03-05T04:59:05.775Z,6.10
2023-03-05T05:01:35.286Z,6.10
2023-03-05T05:04:02.365Z,6.00
2023-03-05T05:06:29.347Z,6.00
2023-03-05T05:08:56.381Z,5.90
2023-03-05T05:11:23.516Z,5.90
2023-03-05T05:13:50.722Z,5.90
2023-03-05T05:16:17.823Z,5.90
2023-03-05T05:18:44.863Z,5.90
2023-03-05T05:21:14.075Z,5.90
2023-03-05T05:23:40.966Z,5.90
2023-03-05T05:26:09.337Z,5.80
2023-03-05T05:28:38.429Z,5.80
2023-03-05T05:31:10.293Z,5.80
2023-03-05T05:33:37.492Z,5.80
2023-03-05T05:36:08.136Z,5.70
2023-03-05T05:38:35.398Z,5.70
2023-03-05T05:41:18.348Z,5.70
2023-03-05T05:43:45.672Z,5.70
2023-03-05T05:46:16.864Z,5.60
2023-03-05T05:48:44.868Z,5.60
2023-03-05T05:51:21.368Z,5.60
2023-03-05T05:53:48.750Z,5.60
2023-03-05T05:56:17.446Z,5.60
2023-03-05T05:58:47.345Z,5.60
2023-03-05T06:01:19.493Z,5.60
2023-03-05T06:03:46.812Z,5.60
2023-03-05T06:06:18.734Z,5.60
2023-03-05T06:08:45.974Z,5.60
2023-03-05T06:11:13.498Z,5.70
2023-03-05T06:13:40.490Z,5.70
2023-03-05T06:16:12.365Z,5.70
2023-03-05T06:18:39.744Z,5.70
2023-03-05T06:21:15.750Z,5.80
2023-03-05T06:23:43.822Z,5.80
2023-03-05T06:26:14.563Z,5.90
2023-03-05T06:28:41.642Z,5.90
2023-03-05T06:31:28.866Z,5.90
2023-03-05T06:34:01.254Z,6.00
2023-03-05T06:36:29.216Z,6.00
2023-03-05T06:38:57.594Z,6.10
2023-03-05T06:41:29.150Z,6.10
2023-03-05T06:43:56.965Z,6.20
2023-03-05T06:46:28.356Z,6.30
2023-03-05T06:48:59.098Z,6.30
2023-03-05T06:51:30.008Z,6.40
2023-03-05T06:54:01.727Z,6.50
2023-03-05T06:56:29.167Z,6.60
2023-03-05T06:58:56.109Z,6.70
2023-03-05T07:01:23.729Z,6.90
2023-03-05T07:03:53.709Z,6.90
2023-03-05T07:06:22.739Z,7.00
2023-03-05T07:08:50.387Z,7.10
2023-03-05T07:11:20.207Z,7.10
2023-03-05T07:13:50.829Z,7.20
2023-03-05T07:16:24.888Z,7.30
2023-03-05T07:18:52.797Z,7.30
2023-03-05T07:21:25.862Z,7.40
2023-03-05T07:23:58.417Z,7.40
2023-03-05T07:26:27.270Z,7.50
2023-03-05T07:28:54.971Z,7.60
2023-03-05T07:31:31.004Z,7.60
2023-03-05T07:34:00.444Z,7.70
2023-03-05T07:36:27.576Z,7.70
2023-03-05T07:38:54.672Z,7.80
2023-03-05T07:41:23.401Z,7.80
2023-03-05T07:43:53.135Z,7.90
2023-03-05T07:46:23.715Z,8.00
2023-03-05T07:48:50.860Z,7.90
2023-03-05T07:51:19.957Z,7.90
2023-03-05T07:53:49.710Z,8.00
2023-03-05T07:56:26.705Z,7.90
2023-03-05T07:58:53.662Z,8.00
2023-03-05T08:01:20.907Z,8.00
2023-03-05T08:03:47.967Z,8.10
2023-03-05T08:06:15.038Z,8.10
2023-03-05T08:08:42.072Z,8.20
2023-03-05T08:11:13.549Z,8.20
2023-03-05T08:13:41.356Z,8.30
2023-03-05T08:16:20.737Z,8.40
2023-03-05T08:18:48.772Z,8.40
2023-03-05T08:21:22.207Z,8.50
2023-03-05T08:23:49.558Z,8.60
2023-03-05T08:26:21.946Z,8.70
2023-03-05T08:28:49.054Z,8.80
2023-03-05T08:31:19.451Z,8.90
2023-03-05T08:33:46.757Z,9.00
2023-03-05T08:36:14.160Z,9.10
2023-03-05T08:38:42.053Z,9.20
2023-03-05T08:41:09.317Z,9.50
2023-03-05T08:43:36.873Z,9.80
2023-03-05T08:46:04.719Z,10.20
2023-03-05T08:48:32.631Z,10.50
2023-03-05T08:51:12.742Z,10.60
2023-03-05T08:53:40.311Z,10.80
2023-03-05T08:56:08.170Z,10.90
2023-03-05T08:58:35.376Z,10.90
2023-03-05T09:01:02.270Z,10.90
2023-03-05T09:03:29.426Z,10.90
2023-03-05T09:06:01.686Z,11.00
2023-03-05T09:08:29.315Z,11.10
2023-03-05T09:10:56.684Z,11.20
2023-03-05T09:13:23.783Z,11.30
2023-03-05T09:16:00.746Z,11.40
2023-03-05T09:18:28.128Z,11.50
2023-03-05T09:20:55.700Z,11.60
2023-03-05T09:23:23.501Z,11.70
2023-03-05T09:25:50.727Z,11.80
2023-03-05T09:28:17.766Z,11.90
2023-03-05T09:30:44.916Z,12.10
2023-03-05T09:33:11.966Z,12.20
2023-03-05T09:35:39.034Z,12.40
2023-03-05T09:38:06.121Z,12.60
2023-03-05T09:41:03.475Z,12.80
2023-03-05T09:44:19.060Z,12.80
2023-03-05T09:47:07.532Z,12.80
2023-03-05T09:50:03.992Z,12.80
2023-03-05T09:52:55.223Z,12.60
2023-03-05T09:55:36.562Z,12.50
2023-03-05T09:58:12.024Z,12.30
2023-03-05T10:00:49.612Z,12.10
2023-03-05T10:03:44.361Z,11.90
2023-03-05T10:06:25.534Z,11.70
2023-03-05T10:09:07.986Z,11.50
2023-03-05T10:12:03.840Z,11.40
2023-03-05T10:14:34.858Z,11.30
2023-03-05T10:17:35.758Z,11.20
2023-03-05T10:20:40.241Z,11.20
2023-03-05T10:23:30.830Z,11.20
2023-03-05T10:26:48.294Z,11.10
2023-03-05T10:29:30.110Z,11.10
2023-03-05T10:32:36.757Z,11.00
2023-03-05T10:35:40.881Z,11.00
2023-03-05T10:38:38.968Z,11.00
2023-03-05T10:41:27.936Z,11.00
2023-03-05T10:44:35.316Z,10.90
2023-03-05T10:47:13.145Z,10.90
2023-03-05T10:49:51.020Z,11.00
2023-03-05T10:52:40.455Z,10.70
2023-03-05T10:55:16.839Z,10.80
2023-03-05T10:57:44.741Z,10.50
2023-03-05T11:00:25.093Z,10.50
2023-03-05T11:03:06.749Z,10.40
2023-03-05T11:05:40.566Z,10.40
2023-03-05T11:08:24.065Z,10.30
2023-03-05T11:11:20.079Z,10.30
2023-03-05T11:14:02.223Z,10.20
2023-03-05T11:16:45.667Z,10.20
2023-03-05T11:19:15.305Z,10.20
2023-03-05T11:21:44.227Z,10.20
2023-03-05T11:24:16.900Z,10.10
2023-03-05T11:26:50.799Z,10.10
2023-03-05T11:29:26.272Z,10.10
2023-03-05T11:31:53.984Z,10.10
2023-03-05T11:34:20.985Z,10.00
2023-03-05T11:36:50.887Z,10.10
2023-03-05T11:39:28.280Z,10.10
2023-03-05T11:42:05.160Z,10.10
2023-03-05T11:44:55.739Z,10.20
2023-03-05T11:47:54.148Z,10.20
2023-03-05T11:50:31.160Z,10.30
2023-03-05T11:53:05.057Z,10.30
2023-03-05T11:55:49.296Z,10.40
2023-03-05T11:58:39.896Z,10.50
2023-03-05T12:01:24.182Z,10.70
2023-03-05T12:03:52.224Z,10.80
2023-03-05T12:06:43.679Z,10.90
2023-03-05T12:09:30.746Z,11.10
2023-03-05T12:12:07.484Z,11.30
2023-03-05T12:14:49.212Z,11.50
2023-03-05T12:17:32.861Z,11.60
2023-03-05T12:20:49.001Z,11.70
2023-03-05T12:23:20.851Z,11.60
2023-03-05T12:25:57.745Z,11.60
2023-03-05T12:28:55.341Z,11.70
2023-03-05T12:31:38.206Z,11.70
2023-03-05T12:34:47.469Z,11.90
2023-03-05T12:37:23.582Z,12.00
2023-03-05T12:40:12.230Z,12.20
2023-03-05T12:42:39.020Z,12.30
2023-03-05T12:45:11.775Z,12.40
2023-03-05T12:47:46.927Z,12.60
2023-03-05T12:50:29.214Z,12.90
2023-03-05T12:53:18.519Z,13.20
2023-03-05T12:55:45.907Z,13.40
2023-03-05T12:58:34.179Z,13.50
2023-03-05T13:01:39.412Z,13.60
2023-03-05T13:04:16.071Z,13.50
2023-03-05T13:06:43.290Z,13.50
2023-03-05T13:09:20.995Z,13.30
2023-03-05T13:11:54.331Z,13.20
2023-03-05T13:14:40.259Z,13.10
2023-03-05T13:17:30.029Z,13.00
2023-03-05T13:19:59.275Z,12.90
2023-03-05T13:22:26.618Z,12.90
2023-03-05T13:25:20.355Z,12.90
2023-03-05T13:27:47.246Z,12.90
2023-03-05T13:30:28.028Z,13.00
2023-03-05T13:33:04.791Z,13.00
2023-03-05T13:35:32.880Z,13.10
2023-03-05T13:38:00.816Z,13.10
2023-03-05T13:40:32.142Z,13.10
2023-03-05T13:43:19.722Z,13.10
2023-03-05T13:45:56.433Z,13.20
2023-03-05T13:48:23.507Z,13.20
2023-03-05T13:50:58.319Z,13.30
2023-03-05T13:53:29.746Z,13.20
2023-03-05T13:56:00.838Z,13.30
2023-03-05T13:58:54.950Z,13.30
2023-03-05T14:01:42.576Z,13.30
2023-03-05T14:04:15.716Z,13.20
2023-03-05T14:06:55.037Z,13.00
2023-03-05T14:09:42.201Z,12.90
2023-03-05T14:12:27.350Z,12.70
2023-03-05T14:14:54.465Z,12.50
2023-03-05T14:17:23.851Z,12.40
2023-03-05T14:19:51.016Z,12.20
2023-03-05T14:22:37.194Z,12.10
2023-03-05T14:25:06.489Z,11.90
2023-03-05T14:27:37.249Z,11.80
2023-03-05T14:30:22.238Z,11.60
2023-03-05T14:32:51.800Z,11.50
2023-03-05T14:35:23.310Z,11.40
2023-03-05T14:37:52.506Z,11.20
2023-03-05T14:40:23.629Z,11.20
2023-03-05T14:43:05.326Z,11.10
2023-03-05T14:45:37.342Z,11.00
2023-03-05T14:48:07.036Z,11.00
2023-03-05T14:50:43.618Z,10.90
2023-03-05T14:53:17.919Z,10.80
2023-03-05T14:55:50.238Z,10.80
2023-03-05T14:58:25.825Z,10.80
2023-03-05T15:00:54.119Z,10.80
2023-03-05T15:03:22.553Z,10.70
2023-03-05T15:05:54.550Z,10.70
2023-03-05T15:08:28.910Z,10.60
2023-03-05T15:10:56.212Z,10.50
2023-03-05T15:13:23.268Z,10.50
2023-03-05T15:15:51.592Z,10.40
2023-03-05T15:18:24.663Z,10.40
2023-03-05T15:20:53.429Z,10.40
2023-03-05T15:23:21.209Z,10.40
2023-03-05T15:25:49.986Z,10.30
2023-03-05T15:28:18.674Z,10.20
2023-03-05T15:30:48.566Z,10.10
2023-03-05T15:33:18.256Z,10.10
2023-03-05T15:35:45.759Z,10.00
2023-03-05T15:38:12.908Z,10.00
2023-03-05T15:40:40.076Z,9.90
2023-03-05T15:43:06.974Z,9.90
2023-03-05T15:45:33.910Z,9.80
2023-03-05T15:48:01.391Z,9.70
2023-03-05T15:50:28.438Z,9.70
2023-03-05T15:52:55.294Z,9.60
2023-03-05T15:55:22.509Z,9.50
2023-03-05T15:57:54.198Z,9.40
2023-03-05T16:00:28.232Z,9.40
2023-03-05T16:02:55.413Z,9.40
2023-03-05T16:05:23.186Z,9.30
2023-03-05T16:07:52.475Z,9.30
2023-03-05T16:10:26.005Z,9.20
2023-03-05T16:12:59.354Z,9.20
2023-03-05T16:15:26.569Z,9.10
2023-03-05T16:17:57.189Z,9.10
2023-03-05T16:20:24.441Z,9.00
2023-03-05T16:22:51.587Z,9.00
2023-03-05T16:25:18.740Z,8.90
2023-03-05T16:27:45.874Z,8.80
2023-03-05T16:30:15.378Z,8.80
2023-03-05T16:32:43.509Z,8.70
2023-03-05T16:35:12.382Z,8.70
2023-03-05T16:37:41.042Z,8.70
2023-03-05T16:40:10.970Z,8.50
2023-03-05T16:42:37.986Z,8.50
2023-03-05T16:45:07.815Z,8.50
2023-03-05T16:47:35.365Z,8.40
2023-03-05T16:50:02.367Z,8.30
2023-03-05T16:52:29.916Z,8.30
2023-03-05T16:54:57.106Z,8.20
2023-03-05T16:57:25.602Z,8.20
2023-03-05T16:59:54.010Z,8.10
2023-03-05T17:02:21.011Z,8.10
2023-03-05T17:04:49.377Z,8.00
2023-03-05T17:07:17.080Z,8.00
2023-03-05T17:09:44.394Z,8.00
2023-03-05T17:12:11.592Z,7.90
2023-03-05T17:14:38.596Z,7.90
2023-03-05T17:17:05.501Z,7.90
2023-03-05T17:19:32.401Z,7.80
2023-03-05T17:21:59.427Z,7.80
2023-03-05T17:24:26.548Z,7.80
2023-03-05T17:26:53.636Z,7.80
2023-03-05T17:29:22.380Z,7.80
2023-03-05T17:31:53.290Z,7.70
2023-03-05T17:34:33.313Z,7.70
2023-03-05T17:37:01.376Z,7.70
2023-03-05T17:39:28.256Z,7.70
2023-03-05T17:41:55.528Z,7.70
2023-03-05T17:44:22.492Z,7.60
2023-03-05T17:46:49.336Z,7.60
2023-03-05T17:49:16.403Z,7.60
2023-03-05T17:51:43.572Z,7.60
2023-03-05T17:54:10.538Z,7.60
2023-03-05T17:56:37.441Z,7.60
2023-03-05T17:59:05.594Z,7.50
2023-03-05T18:01:35.012Z,7.50
2023-03-05T18:04:02.536Z,7.50
2023-03-05T18:06:30.172Z,7.50
2023-03-05T18:08:57.506Z,7.40
2023-03-05T18:11:24.550Z,7.40
2023-03-05T18:13:51.484Z,7.40
2023-03-05T18:16:18.665Z,7.30
2023-03-05T18:18:45.742Z,7.30
2023-03-05T18:21:12.890Z,7.30
2023-03-05T18:23:39.811Z,7.20
2023-03-05T18:26:07.003Z,7.20
2023-03-05T18:28:34.083Z,7.20
2023-03-05T18:31:01.447Z,7.10
2023-03-05T18:33:28.410Z,7.10
2023-03-05T18:35:55.585Z,7.10
2023-03-05T18:38:26.026Z,7.10
2023-03-05T18:40:56.388Z,7.10
2023-03-05T18:43:24.929Z,7.00
2023-03-05T18:45:54.932Z,7.00
2023-03-05T18:48:22.896Z,7.00
2023-03-05T18:50:54.394Z,6.90
2023-03-05T18:53:22.258Z,6.90
2023-03-05T18:55:51.351Z,6.80
2023-03-05T18:58:18.863Z,6.80
2023-03-05T19:00:47.058Z,6.80
2023-03-05T19:03:15.693Z,6.70
2023-03-05T19:05:42.901Z,6.80
2023-03-05T19:08:10.640Z,6.70
2023-03-05T19:10:37.670Z,6.70
2023-03-05T19:13:43.419Z,6.70
2023-03-05T19:16:26.800Z,6.70
2023-03-05T19:19:24.452Z,6.70
2023-03-05T19:22:00.688Z,6.80
2023-03-05T19:24:30.739Z,6.60
2023-03-05T19:27:00.978Z,6.60
2023-03-05T19:29:34.310Z,6.60
2023-03-05T19:32:01.619Z,6.50
2023-03-05T19:34:28.660Z,6.50
2023-03-05T19:36:55.689Z,6.50
2023-03-05T19:39:22.798Z,6.50
2023-03-05T19:41:49.799Z,6.50
2023-03-05T19:44:18.535Z,6.50
2023-03-05T19:46:48.092Z,6.50
2023-03-05T19:49:17.254Z,6.50
2023-03-05T19:51:45.963Z,6.50
2023-03-05T19:54:16.336Z,6.50
2023-03-05T19:56:45.165Z,6.50
2023-03-05T19:59:16.512Z,6.50
2023-03-05T20:01:45.319Z,6.50
2023-03-05T20:04:20.999Z,6.50
2023-03-05T20:06:48.311Z,6.50
2023-03-05T20:09:16.190Z,6.50
2023-03-05T20:11:43.588Z,6.50
2023-03-05T20:14:12.951Z,6.50
2023-03-05T20:16:41.345Z,6.50
2023-03-05T20:19:11.789Z,6.50
2023-03-05T20:21:42.077Z,6.50
2023-03-05T20:24:16.933Z,6.50
2023-03-05T20:26:45.859Z,6.50
2023-03-05T20:29:17.484Z,6.50
2023-03-05T20:31:45.641Z,6.50
2023-03-05T20:34:17.069Z,6.50
2023-03-05T20:36:44.436Z,6.50
2023-03-05T20:39:12.392Z,6.50
2023-03-05T20:41:40.582Z,6.50
2023-03-05T20:44:08.539Z,6.60
2023-03-05T20:47:25.602Z,6.60
2023-03-05T20:50:05.060Z,6.60
2023-03-05T20:52:32.303Z,6.60
2023-03-05T20:54:59.401Z,6.60
2023-03-05T20:57:26.416Z,6.60
2023-03-05T20:59:53.860Z,6.60
2023-03-05T21:02:20.915Z,6.60
2023-03-05T21:04:47.872Z,6.60
2023-03-05T21:07:14.936Z,6.60
2023-03-05T21:09:42.064Z,6.60
2023-03-05T21:12:09.220Z,6.60
2023-03-05T21:14:40.735Z,6.60
2023-03-05T21:17:09.099Z,6.60
2023-03-05T21:19:38.972Z,6.60
2023-03-05T21:22:06.099Z,6.60
2023-03-05T21:25:20.576Z,6.60
2023-03-05T21:28:12.800Z,6.60
2023-03-05T21:30:47.214Z,6.60
2023-03-05T21:33:25.118Z,6.60
2023-03-05T21:35:54.335Z,6.60
2023-03-05T21:38:23.328Z,6.60
2023-03-05T21:40:53.618Z,6.60
2023-03-05T21:43:23.537Z,6.60
2023-03-05T21:45:53.482Z,6.60
2023-03-05T21:48:22.178Z,6.60
2023-03-05T21:50:49.864Z,6.60
2023-03-05T21:53:19.140Z,6.60
2023-03-05T21:56:26.312Z,6.50
2023-03-05T21:58:53.959Z,6.50
2023-03-05T22:01:21.840Z,6.50
2023-03-05T22:03:49.772Z,6.40
2023-03-05T22:06:19.215Z,6.40
2023-03-05T22:08:47.207Z,6.40
2023-03-05T22:11:17.483Z,6.30
2023-03-05T22:13:44.615Z,6.30
2023-03-05T22:16:14.247Z,6.30
2023-03-05T22:18:41.325Z,6.20
2023-03-05T22:21:26.821Z,6.20
2023-03-05T22:23:58.529Z,6.20
2023-03-05T22:26:34.523Z,6.20
2023-03-05T22:29:02.465Z,6.20
2023-03-05T22:31:30.343Z,6.10
2023-03-05T22:33:57.634Z,6.20
2023-03-05T22:36:24.711Z,6.20
2023-03-05T22:38:52.571Z,6.10
2023-03-05T22:41:21.591Z,6.20
2023-03-05T22:43:50.668Z,6.10
2023-03-05T22:46:25.273Z,6.20
2023-03-05T22:48:53.183Z,6.20
2023-03-05T22:51:20.619Z,6.20
2023-03-05T22:53:47.553Z,6.20
2023-03-05T22:56:18.236Z,6.20
2023-03-05T22:58:45.625Z,6.20
2023-03-05T23:01:19.518Z,6.20
2023-03-05T23:04:18.452Z,6.20
2023-03-05T23:07:03.774Z,6.20
2023-03-05T23:09:30.957Z,6.20
2023-03-05T23:11:57.942Z,6.10
2023-03-05T23:14:24.887Z,6.10
2023-03-05T23:16:51.784Z,6.10
2023-03-05T23:19:19.030Z,6.10
2023-03-05T23:21:46.034Z,6.10
2023-03-05T23:24:12.971Z,6.10
2023-03-05T23:26:40.111Z,6.10
2023-03-05T23:29:07.140Z,6.10
2023-03-05T23:31:34.219Z,6.10
2023-03-05T23:34:01.287Z,6.00
2023-03-05T23:36:28.501Z,6.00
2023-03-05T23:38:58.132Z,6.00
2023-03-05T23:41:25.186Z,5.90
2023-03-05T23:43:52.135Z,5.90
2023-03-05T23:46:19.078Z,5.90
2023-03-05T23:48:46.169Z,6.10
2023-03-05T23:51:13.220Z,5.90
2023-03-05T23:53:40.244Z,5.90
2023-03-05T23:56:11.323Z,5.90
2023-03-05T23:58:38.840Z,5.90
